Time;durP1;ratioP1;P1;durP2;ratioP2;P2;SDS_P1;SDS_P2;PMS_P1;PMS_P2;Temp;Humidity;BMP_temperature;BMP_pressure;BME280_temperature;BME280_humidity;BME280_pressure;Samples;Min_cycle;Max_cycle;Signal;HPM_P1;HPM_P2
2022/11/29 00:02:26;;;;;;;;;57.60;46.60;;;;;4.48;59.62;99208.56;6199218;28;96378;-62
2022/11/29 00:05:30;;;;;;;;;62.80;49.60;;;;;4.49;59.13;99206.72;6194926;28;96206;-61
2022/11/29 00:08:33;;;;;;;;;63.67;50.00;;;;;4.49;59.17;99204.06;6190384;28;96340;-62
2022/11/29 00:14:59;;;;;;;;;58.75;47.00;;;;;4.54;59.12;99199.84;6190842;28;96331;-62
2022/11/29 00:18:03;;;;;;;;;62.60;49.00;;;;;4.47;59.44;99200.72;6174878;28;96408;-62
2022/11/29 00:21:07;;;;;;;;;62.00;49.80;;;;;4.36;59.37;99197.44;6190007;28;96574;-62
2022/11/29 00:24:10;;;;;;;;;60.80;48.00;;;;;4.44;59.09;99198.41;6189721;28;96341;-62
2022/11/29 00:27:15;;;;;;;;;64.00;51.00;;;;;4.45;58.70;99186.72;6178431;28;96396;-62
2022/11/29 00:30:19;;;;;;;;;65.60;51.40;;;;;4.40;58.75;99195.22;6190149;28;96349;-62
2022/11/29 00:33:22;;;;;;;;;58.00;47.00;;;;;4.32;59.15;99196.13;6189952;28;96523;-62
2022/11/29 00:36:26;;;;;;;;;65.00;51.00;;;;;4.33;58.88;99186.28;6189973;28;96468;-62
2022/11/29 00:39:29;;;;;;;;;63.00;50.00;;;;;4.30;59.02;99184.75;6188627;28;96349;-63
2022/11/29 00:42:34;;;;;;;;;61.00;48.00;;;;;4.28;59.31;99191.31;6189618;28;96932;-63
2022/11/29 00:45:37;;;;;;;;;59.20;47.40;;;;;4.17;59.41;99184.50;6179384;28;96349;-62
2022/11/29 00:48:40;;;;;;;;;62.00;49.00;;;;;4.23;59.65;99178.47;6174307;28;96436;-62
2022/11/29 00:51:43;;;;;;;;;60.00;48.00;;;;;4.21;59.51;99176.97;6188706;28;96591;-62
2022/11/29 00:54:47;;;;;;;;;62.00;50.80;;;;;4.19;59.26;99181.69;6189726;28;96328;-62
2022/11/29 00:57:52;;;;;;;;;65.50;51.00;;;;;4.13;59.53;99179.69;6185581;28;96263;-62
2022/11/29 01:00:56;;;;;;;;;62.00;50.00;;;;;4.15;59.61;99177.69;6178088;28;97268;-62
2022/11/29 01:04:00;;;;;;;;;60.00;48.00;;;;;4.15;60.18;99172.34;6184704;28;96283;-62
2022/11/29 01:07:03;;;;;;;;;62.80;49.60;;;;;4.17;60.22;99168.50;6189505;28;96347;-62
2022/11/29 01:10:08;;;;;;;;;61.00;49.00;;;;;4.18;59.74;99178.16;6189334;28;96462;-63
2022/11/29 01:13:14;;;;;;;;;62.25;50.25;;;;;4.24;59.79;99172.16;6187793;28;96310;-62
2022/11/29 01:16:17;;;;;;;;;58.60;47.40;;;;;4.34;59.23;99174.59;6171593;28;96985;-62
2022/11/29 01:19:20;;;;;;;;;62.40;50.00;;;;;4.32;59.57;99173.94;6189116;28;96210;-62
2022/11/29 01:22:24;;;;;;;;;60.00;47.80;;;;;4.35;59.59;99171.72;6189153;28;96264;-63
2022/11/29 01:25:28;;;;;;;;;63.00;50.00;;;;;4.38;59.64;99169.72;6173030;28;96543;-62
2022/11/29 01:28:33;;;;;;;;;62.60;49.80;;;;;4.42;59.69;99168.38;6188358;28;96793;-62
2022/11/29 01:31:37;;;;;;;;;60.20;49.00;;;;;4.44;59.95;99172.53;6187933;28;96312;-62
2022/11/29 01:34:40;;;;;;;;;59.20;47.80;;;;;4.49;59.45;99161.34;6171140;28;96268;-63
2022/11/29 01:37:44;;;;;;;;;57.00;46.80;;;;;4.48;59.48;99168.50;6176661;28;96306;-62
2022/11/29 01:40:57;;;;;;;;;60.00;48.25;;;;;4.50;58.96;99146.94;6185558;28;96644;-62
2022/11/29 01:44:05;;;;;;;;;61.25;48.50;;;;;4.35;59.24;99113.00;6188887;28;96374;-63
2022/11/29 01:47:10;;;;;;;;;62.00;49.75;;;;;4.51;59.37;99137.94;6188330;28;96515;-62
2022/11/29 01:50:14;;;;;;;;;58.00;47.60;;;;;4.56;59.38;99144.41;6188001;28;97162;-62
2022/11/29 01:53:17;;;;;;;;;63.20;49.80;;;;;4.57;59.04;99148.75;6174468;28;96400;-61
2022/11/29 01:56:22;;;;;;;;;62.00;49.00;;;;;4.57;59.00;99148.75;6186322;28;96382;-61
2022/11/29 01:59:29;;;;;;;;;59.50;48.00;;;;;4.58;58.65;99142.41;6188343;28;96567;-62
2022/11/29 02:02:38;;;;;;;;;60.75;48.00;;;;;4.61;58.53;99150.06;6187386;28;96881;-62
2022/11/29 02:05:45;;;;;;;;;62.75;49.75;;;;;4.56;58.22;99152.44;6188832;28;96516;-62
2022/11/29 02:08:48;;;;;;;;;63.80;51.00;;;;;4.51;58.27;99169.97;6188228;28;96361;-62
2022/11/29 02:12:13;;;;;;;;;62.00;49.00;;;;;4.40;58.52;99157.84;6188275;28;96357;-62
2022/11/29 02:15:29;;;;;;;;;67.00;53.60;;;;;4.31;58.75;99156.25;6188217;28;96386;-62
2022/11/29 02:18:46;;;;;;;;;64.20;50.20;;;;;4.30;58.65;99155.41;6188088;28;96266;-62
2022/11/29 02:21:56;;;;;;;;;62.00;49.00;;;;;4.32;58.97;99161.41;6187599;28;96441;-62
2022/11/29 02:25:29;;;;;;;;;60.80;49.00;;;;;4.22;59.50;99157.28;6187667;28;96271;-62
2022/11/29 02:29:05;;;;;;;;;61.20;49.40;;;;;4.38;59.30;99162.56;6180168;28;96868;-62
2022/11/29 02:32:54;;;;;;;;;66.00;51.80;;;;;4.42;59.07;99163.88;6174482;28;96483;-62
2022/11/29 02:36:34;;;;;;;;;65.60;52.00;;;;;4.49;59.25;99169.34;6160224;28;96317;-62
2022/11/29 02:40:11;;;;;;;;;62.50;49.50;;;;;4.61;59.00;99162.56;6187212;28;97404;-62
2022/11/29 02:43:36;;;;;;;;;62.50;50.25;;;;;4.64;58.67;99167.59;6170358;28;96319;-62
2022/11/29 02:46:55;;;;;;;;;60.00;49.00;;;;;4.67;58.76;99175.22;6188015;28;96412;-62
2022/11/29 02:50:17;;;;;;;;;58.20;46.60;;;;;4.68;58.64;99168.88;6187683;28;96314;-63
2022/11/29 02:53:29;;;;;;;;;60.00;48.00;;;;;4.62;58.80;99158.91;6187681;28;96359;-62
2022/11/29 02:56:43;;;;;;;;;61.00;48.50;;;;;4.56;58.94;99160.44;6187256;28;96860;-62
2022/11/29 02:59:58;;;;;;;;;61.50;49.00;;;;;4.55;59.12;99171.28;6184997;28;97471;-62
2022/11/29 03:03:09;;;;;;;;;61.00;49.00;;;;;4.36;59.73;99167.22;6182294;28;96897;-61
2022/11/29 03:06:22;;;;;;;;;58.00;47.00;;;;;4.48;59.81;99179.19;6187580;28;97518;-62
2022/11/29 03:09:36;;;;;;;;;57.50;45.25;;;;;4.56;59.68;99180.97;6187312;28;96089;-61
2022/11/29 03:12:44;;;;;;;;;57.00;46.80;;;;;4.57;59.72;99179.97;6166131;28;96450;-62
2022/11/29 03:15:57;;;;;;;;;56.00;46.00;;;;;4.52;59.52;99179.66;6180592;28;96638;-62
2022/11/29 03:19:10;;;;;;;;;58.00;46.00;;;;;4.50;59.72;99160.31;6187141;28;96515;-63
2022/11/29 03:22:28;;;;;;;;;56.80;46.40;;;;;4.51;59.84;99197.50;6191569;28;96344;-62
2022/11/29 03:25:38;;;;;;;;;56.00;45.00;;;;;4.47;60.18;99192.69;6191680;28;96560;-62
2022/11/29 03:28:49;;;;;;;;;57.50;46.00;;;;;4.52;60.55;99207.19;6176813;28;96482;-62
2022/11/29 03:32:00;;;;;;;;;54.25;44.00;;;;;4.54;60.33;99199.84;6184165;28;97913;-62
2022/11/29 03:35:11;;;;;;;;;57.00;45.25;;;;;4.58;60.81;99203.81;6162516;28;96802;-62
2022/11/29 03:38:26;;;;;;;;;57.80;46.00;;;;;4.65;60.30;99199.44;6175064;28;97058;-62
2022/11/29 03:41:37;;;;;;;;;56.20;46.00;;;;;4.60;60.02;99203.63;6156829;28;96507;-62
2022/11/29 03:44:51;;;;;;;;;57.00;44.60;;;;;4.67;59.99;99200.09;6175689;28;96374;-62
2022/11/29 03:48:01;;;;;;;;;54.00;43.80;;;;;4.75;60.38;99204.53;6184218;28;97411;-62
2022/11/29 03:51:11;;;;;;;;;56.60;46.00;;;;;4.61;60.06;99207.97;6178694;28;96639;-62
2022/11/29 03:54:22;;;;;;;;;57.75;45.75;;;;;4.69;60.25;99219.44;6190976;28;96104;-62
2022/11/29 03:57:31;;;;;;;;;54.33;44.00;;;;;4.66;59.99;99218.97;6190177;28;96870;-62
2022/11/29 04:00:48;;;;;;;;;57.00;46.00;;;;;4.67;60.08;99216.13;6184919;28;96372;-62
2022/11/29 04:04:19;;;;;;;;;52.75;43.00;;;;;4.66;59.94;99225.13;6184267;28;96375;-61
2022/11/29 04:07:35;;;;;;;;;55.50;44.00;;;;;4.67;60.19;99231.31;6180701;28;96409;-62
2022/11/29 04:11:01;;;;;;;;;53.80;41.80;;;;;4.59;60.24;99224.19;6161539;28;96517;-62
2022/11/29 04:14:30;;;;;;;;;50.75;41.00;;;;;4.57;60.52;99233.38;6186278;28;96929;-62
2022/11/29 04:18:08;;;;;;;;;55.20;43.20;;;;;4.60;60.59;99230.34;6152673;28;96208;-62
2022/11/29 04:21:55;;;;;;;;;49.00;40.00;;;;;4.60;60.53;99233.00;6178083;28;96927;-63
2022/11/29 04:25:33;;;;;;;;;49.60;40.20;;;;;4.68;60.57;99227.63;6124890;28;96858;-62
2022/11/29 04:29:12;;;;;;;;;55.40;44.80;;;;;4.80;60.55;99231.56;6153940;28;96742;-62
2022/11/29 04:32:50;;;;;;;;;52.60;42.40;;;;;4.88;60.14;99231.53;6174989;28;96949;-63
2022/11/29 04:36:26;;;;;;;;;55.60;44.00;;;;;4.94;60.26;99241.47;6173038;28;96269;-62
2022/11/29 04:39:46;;;;;;;;;57.75;45.75;;;;;4.94;59.71;99243.31;6188421;28;96837;-62
2022/11/29 04:43:15;;;;;;;;;55.40;44.80;;;;;4.93;59.89;99247.03;6177261;28;96412;-63
2022/11/29 04:46:39;;;;;;;;;53.20;42.40;;;;;4.98;59.81;99258.84;6186702;28;96836;-62
2022/11/29 04:50:05;;;;;;;;;53.00;42.80;;;;;5.00;59.11;99266.66;6194016;28;96361;-62
2022/11/29 04:53:30;;;;;;;;;58.00;45.20;;;;;4.86;59.38;99270.09;6181807;28;96213;-62
2022/11/29 04:56:40;;;;;;;;;58.00;46.00;;;;;4.83;59.56;99268.63;6192115;28;96411;-63
2022/11/29 04:59:51;;;;;;;;;53.20;43.40;;;;;4.85;59.49;99271.09;6161673;28;96720;-62
2022/11/29 05:02:57;;;;;;;;;54.00;43.00;;;;;4.73;59.23;99273.34;6186641;28;98485;-61
2022/11/29 05:06:12;;;;;;;;;55.80;44.20;;;;;4.75;59.91;99277.50;6187921;28;96371;-62
2022/11/29 05:09:27;;;;;;;;;54.50;43.25;;;;;4.70;59.35;99268.34;6189388;28;96300;-62
2022/11/29 05:12:38;;;;;;;;;57.00;44.00;;;;;4.73;59.15;99278.69;6187118;28;97137;-62
2022/11/29 05:16:11;;;;;;;;;52.50;41.50;;;;;4.58;58.72;99275.91;6183106;28;96939;-62
2022/11/29 05:19:29;;;;;;;;;54.50;43.50;;;;;4.54;58.85;99281.78;6185877;28;96234;-63
2022/11/29 05:22:46;;;;;;;;;50.75;42.00;;;;;4.39;59.14;99286.19;6190149;28;96976;-62
2022/11/29 05:25:56;;;;;;;;;56.33;45.00;;;;;4.23;59.56;99295.06;6188949;28;96389;-62
2022/11/29 05:29:05;;;;;;;;;52.50;43.50;;;;;4.31;59.57;99297.69;6184286;28;97496;-63
2022/11/29 05:32:27;;;;;;;;;54.40;43.00;;;;;4.19;60.10;99278.56;6183167;28;96709;-63
2022/11/29 05:35:50;;;;;;;;;50.00;39.60;;;;;4.36;60.67;99306.88;6196420;28;96899;-62
2022/11/29 05:39:27;;;;;;;;;53.40;43.60;;;;;4.44;60.24;99299.84;6193161;28;96996;-62
2022/11/29 05:42:42;;;;;;;;;52.00;41.60;;;;;4.52;59.81;99305.97;6194057;28;96365;-63
2022/11/29 05:45:52;;;;;;;;;56.60;44.40;;;;;4.59;60.01;99306.13;6193232;28;97484;-62
2022/11/29 05:49:07;;;;;;;;;50.00;39.00;;;;;4.53;59.33;99314.81;6191499;28;98908;-62
2022/11/29 05:52:24;;;;;;;;;48.50;39.50;;;;;4.53;59.26;99321.00;6193782;28;96819;-62
2022/11/29 05:55:39;;;;;;;;;52.80;42.00;;;;;4.53;60.00;99320.16;6195683;28;96709;-61
2022/11/29 05:58:50;;;;;;;;;52.40;40.60;;;;;4.69;60.14;99320.09;6196249;28;97151;-63
2022/11/29 06:02:04;;;;;;;;;49.00;38.75;;;;;4.62;59.51;99311.13;6188021;28;96577;-63
2022/11/29 06:05:14;;;;;;;;;53.80;43.40;;;;;4.63;59.15;99328.81;6189853;28;96353;-63
2022/11/29 06:08:28;;;;;;;;;53.00;41.80;;;;;4.76;59.38;99326.41;6185810;28;96252;-62
2022/11/29 06:11:38;;;;;;;;;56.80;45.00;;;;;4.72;59.53;99330.44;6198165;28;96358;-62
2022/11/29 06:15:02;;;;;;;;;52.20;41.00;;;;;4.80;59.17;99336.56;6193424;28;96736;-62
2022/11/29 06:18:22;;;;;;;;;54.80;42.00;;;;;4.84;59.75;99342.38;6196727;28;96919;-62
2022/11/29 06:21:36;;;;;;;;;49.00;40.00;;;;;4.89;58.88;99345.38;6182056;28;96470;-63
2022/11/29 06:24:55;;;;;;;;;54.80;43.80;;;;;4.81;58.76;99348.09;6184839;28;96549;-62
2022/11/29 06:28:16;;;;;;;;;49.00;40.00;;;;;4.79;58.45;99348.25;6180393;28;96490;-62
2022/11/29 06:31:25;;;;;;;;;54.20;42.80;;;;;4.73;58.66;99348.97;6185495;28;96237;-62
2022/11/29 06:34:36;;;;;;;;;57.00;45.00;;;;;4.76;59.37;99345.09;6186867;28;96609;-62
2022/11/29 06:37:43;;;;;;;;;50.00;42.00;;;;;4.75;59.05;99348.78;6182094;28;97197;-62
2022/11/29 06:40:47;;;;;;;;;49.00;38.40;;;;;4.69;58.96;99350.28;6181396;28;97189;-62
2022/11/29 06:43:53;;;;;;;;;49.00;39.75;;;;;4.70;59.17;99351.97;6176572;28;96416;-62
2022/11/29 06:47:05;;;;;;;;;47.60;39.00;;;;;4.79;58.99;99364.28;6179320;28;97239;-63
2022/11/29 06:50:26;;;;;;;;;48.60;40.00;;;;;4.87;59.32;99359.91;6184972;28;96537;-62
2022/11/29 06:53:40;;;;;;;;;49.80;40.80;;;;;4.78;59.20;99345.78;6182921;28;96509;-62
2022/11/29 06:56:49;;;;;;;;;52.60;42.60;;;;;5.02;59.05;99363.53;6183478;28;96431;-62
2022/11/29 07:00:05;;;;;;;;;47.50;37.00;;;;;4.93;58.68;99365.41;6184110;28;96410;-62
2022/11/29 07:03:41;;;;;;;;;50.00;38.00;;;;;5.03;59.41;99367.88;6185227;28;96421;-62
2022/11/29 07:06:45;;;;;;;;;49.00;38.00;;;;;5.07;59.12;99371.84;6183339;28;96495;-62
2022/11/29 07:09:51;;;;;;;;;50.40;42.00;;;;;5.03;58.94;99371.38;6184705;28;96325;-62
2022/11/29 07:12:54;;;;;;;;;48.00;39.00;;;;;5.05;58.52;99373.84;6186460;28;97453;-62
2022/11/29 07:16:07;;;;;;;;;50.00;41.20;;;;;4.75;58.83;99378.16;6186339;28;96588;-62
2022/11/29 07:19:20;;;;;;;;;45.00;37.60;;;;;4.67;59.25;99376.34;6186826;28;96344;-62
2022/11/29 07:22:43;;;;;;;;;52.00;41.60;;;;;4.73;59.52;99378.34;6165541;28;96475;-63
2022/11/29 07:26:00;;;;;;;;;48.20;39.60;;;;;4.79;59.74;99384.81;6184020;28;96453;-62
2022/11/29 07:29:20;;;;;;;;;49.60;39.00;;;;;4.93;59.82;99385.94;6184859;28;96380;-62
2022/11/29 07:32:39;;;;;;;;;47.00;38.20;;;;;5.06;59.25;99380.88;6185482;28;96528;-63
2022/11/29 07:35:51;;;;;;;;;52.20;41.80;;;;;5.16;58.38;99389.50;6185655;28;96296;-62
2022/11/29 07:39:03;;;;;;;;;50.40;41.40;;;;;5.19;58.42;99394.50;6185878;28;96357;-62
2022/11/29 07:42:18;;;;;;;;;48.60;39.80;;;;;5.19;58.24;99398.00;6186429;28;96784;-62
2022/11/29 07:45:27;;;;;;;;;53.00;41.50;;;;;5.16;58.24;99398.38;6184960;28;96374;-62
2022/11/29 07:48:32;;;;;;;;;49.80;39.80;;;;;5.15;58.69;99398.53;6185922;28;96565;-62
2022/11/29 07:51:35;;;;;;;;;47.20;38.20;;;;;5.02;58.39;99407.13;6186038;28;96362;-63
2022/11/29 07:54:39;;;;;;;;;55.00;43.00;;;;;4.93;58.82;99397.47;6177413;28;97170;-63
2022/11/29 07:57:42;;;;;;;;;53.75;42.75;;;;;4.97;59.30;99396.13;6166131;28;96643;-63
2022/11/29 08:00:46;;;;;;;;;47.60;39.80;;;;;4.84;59.13;99382.47;6184920;28;97046;-63
2022/11/29 08:03:50;;;;;;;;;51.33;42.33;;;;;5.00;59.29;99408.28;6183715;28;96407;-63
2022/11/29 08:06:57;;;;;;;;;52.25;43.50;;;;;5.13;59.40;99408.59;6187397;28;96343;-63
2022/11/29 08:10:00;;;;;;;;;58.20;45.60;;;;;5.29;59.20;99411.16;6190236;28;96408;-63
2022/11/29 08:13:04;;;;;;;;;53.00;42.60;;;;;5.29;58.30;99421.84;6190311;28;96292;-63
2022/11/29 08:16:07;;;;;;;;;57.25;44.25;;;;;5.28;58.37;99416.69;6189163;28;97005;-63
2022/11/29 08:19:12;;;;;;;;;50.25;41.00;;;;;5.33;58.68;99417.81;6180813;28;97837;-62
2022/11/29 08:22:15;;;;;;;;;53.40;42.20;;;;;5.54;58.18;99419.88;6167642;28;96761;-63
2022/11/29 08:25:18;;;;;;;;;58.00;45.50;;;;;5.56;58.10;99409.84;6186455;28;96515;-63
2022/11/29 08:28:22;;;;;;;;;53.00;42.00;;;;;5.64;57.93;99421.31;6187459;28;96468;-63
2022/11/29 08:31:25;;;;;;;;;52.50;42.00;;;;;5.72;57.66;99411.59;6164617;28;96965;-63
2022/11/29 08:34:30;;;;;;;;;50.20;40.20;;;;;5.78;57.21;99424.22;6174569;28;96243;-62
2022/11/29 08:37:34;;;;;;;;;48.40;40.00;;;;;5.78;57.29;99419.72;6180533;28;97532;-62
2022/11/29 08:40:37;;;;;;;;;50.00;40.50;;;;;5.90;57.14;99431.72;6188552;28;96304;-63
2022/11/29 08:43:41;;;;;;;;;46.50;39.25;;;;;5.78;56.82;99430.41;6188160;28;96060;-62
2022/11/29 08:50:13;;;;;;;;;44.50;34.75;;;;;5.80;57.12;99435.59;6171879;28;96437;-62
2022/11/29 08:56:37;;;;;;;;;52.00;38.40;;;;;6.01;57.16;99433.13;6182389;28;96602;-63
2022/11/29 09:00:00;;;;;;;;;49.00;39.00;;;;;6.19;57.45;99427.47;6184240;28;96388;-62
2022/11/29 09:06:29;;;;;;;;;50.33;41.33;;;;;6.41;57.13;99432.75;6188735;28;97953;-63
2022/11/29 09:09:32;;;;;;;;;51.75;41.50;;;;;6.50;56.55;99425.47;6188480;28;96426;-62
2022/11/29 09:12:36;;;;;;;;;52.00;42.60;;;;;6.54;55.73;99432.16;6186290;28;96449;-63
2022/11/29 09:15:42;;;;;;;;;45.00;36.20;;;;;6.47;55.65;99432.03;6187721;28;96943;-62
2022/11/29 09:18:47;;;;;;;;;46.80;38.80;;;;;6.54;55.61;99432.16;6168833;28;96508;-63
2022/11/29 09:21:55;;;;;;;;;51.50;40.50;;;;;6.52;55.44;99426.13;6186977;28;96549;-62
2022/11/29 09:24:58;;;;;;;;;51.60;41.00;;;;;6.53;55.30;99422.44;6176987;28;96406;-62
2022/11/29 09:28:02;;;;;;;;;51.00;40.40;;;;;6.51;55.89;99427.16;6182769;28;96367;-63
2022/11/29 09:31:06;;;;;;;;;48.00;40.25;;;;;6.48;55.57;99423.00;6181647;28;96496;-62
2022/11/29 09:34:12;;;;;;;;;50.80;41.00;;;;;6.55;55.73;99433.00;6186144;28;96522;-62
2022/11/29 09:37:17;;;;;;;;;46.50;37.75;;;;;6.55;55.19;99433.00;6182136;28;96747;-62
2022/11/29 09:40:30;;;;;;;;;47.00;39.00;;;;;6.64;55.34;99431.91;6173567;28;97850;-62
2022/11/29 09:43:46;;;;;;;;;48.60;39.20;;;;;6.65;55.00;99420.13;6188013;28;96382;-62
2022/11/29 09:47:00;;;;;;;;;48.80;39.80;;;;;6.57;55.26;99428.28;6185652;28;96379;-62
2022/11/29 09:50:17;;;;;;;;;43.40;35.60;;;;;6.32;55.59;99427.66;6184242;28;96408;-62
2022/11/29 09:53:36;;;;;;;;;44.00;35.80;;;;;6.31;56.07;99428.69;6181017;28;97088;-63
2022/11/29 09:56:43;;;;;;;;;46.80;37.80;;;;;6.12;56.07;99402.41;6183907;28;96782;-62
2022/11/29 09:59:51;;;;;;;;;47.50;35.00;;;;;6.32;56.50;99423.16;6187963;28;96428;-62
2022/11/29 10:03:01;;;;;;;;;51.25;42.00;;;;;6.40;56.19;99425.75;6181465;28;96724;-62
2022/11/29 10:06:11;;;;;;;;;51.20;40.00;;;;;6.34;55.86;99431.84;6185359;28;96361;-62
2022/11/29 10:09:22;;;;;;;;;50.40;42.00;;;;;6.27;56.57;99435.41;6168155;28;96503;-62
2022/11/29 10:12:33;;;;;;;;;46.80;37.20;;;;;6.34;56.81;99431.84;6186262;28;96391;-64
2022/11/29 10:15:42;;;;;;;;;52.60;41.80;;;;;6.48;56.60;99435.56;6185650;28;96648;-63
2022/11/29 10:18:49;;;;;;;;;52.00;41.00;;;;;6.55;55.85;99428.44;6185967;28;96997;-62
2022/11/29 10:21:59;;;;;;;;;47.80;38.00;;;;;6.58;55.83;99436.13;6187261;28;96506;-62
2022/11/29 10:25:09;;;;;;;;;48.50;39.50;;;;;6.64;56.07;99419.34;6187676;28;96742;-62
2022/11/29 10:28:15;;;;;;;;;46.80;37.80;;;;;6.79;55.31;99416.66;6168844;28;97291;-62
2022/11/29 10:31:23;;;;;;;;;46.50;37.50;;;;;6.93;55.45;99415.81;6169930;28;96930;-62
2022/11/29 10:34:31;;;;;;;;;49.00;39.00;;;;;6.84;55.20;99414.25;6187479;28;96291;-62
2022/11/29 10:37:34;;;;;;;;;47.50;39.25;;;;;6.88;55.32;99402.16;6187544;28;97037;-62
2022/11/29 10:40:42;;;;;;;;;51.80;42.80;;;;;6.89;55.34;99411.84;6187496;28;96448;-62
2022/11/29 10:43:46;;;;;;;;;48.20;38.60;;;;;6.91;55.43;99416.00;6187487;28;97013;-63
2022/11/29 10:46:50;;;;;;;;;49.00;39.00;;;;;6.92;55.39;99411.47;6187258;28;96312;-62
2022/11/29 10:49:54;;;;;;;;;51.40;40.80;;;;;7.01;54.82;99402.31;6186574;28;96359;-63
2022/11/29 10:53:04;;;;;;;;;41.20;35.00;;;;;7.08;54.53;99410.47;6186973;28;96690;-63
2022/11/29 10:56:14;;;;;;;;;45.00;37.50;;;;;7.10;54.21;99403.88;6187147;28;96370;-62
2022/11/29 10:59:22;;;;;;;;;40.60;33.60;;;;;7.05;53.90;99381.31;6158739;28;97583;-62
2022/11/29 11:02:26;;;;;;;;;43.00;36.00;;;;;7.06;53.82;99402.59;6168304;28;98932;-62
2022/11/29 11:05:30;;;;;;;;;45.00;37.00;;;;;7.05;54.44;99398.25;6186223;28;96268;-63
2022/11/29 11:08:35;;;;;;;;;46.25;38.25;;;;;7.09;54.60;99396.00;6182370;28;97212;-62
2022/11/29 11:11:43;;;;;;;;;42.25;34.00;;;;;7.06;53.39;99394.53;6184331;28;96345;-63
2022/11/29 11:14:47;;;;;;;;;44.60;35.00;;;;;7.06;53.87;99393.72;6186693;28;97225;-63
2022/11/29 11:17:58;;;;;;;;;42.80;34.20;;;;;7.08;54.06;99392.53;6186336;28;96214;-62
2022/11/29 11:21:03;;;;;;;;;46.40;38.00;;;;;6.90;54.26;99392.06;6168998;28;96416;-62
2022/11/29 11:24:22;;;;;;;;;48.50;39.00;;;;;6.70;54.99;99390.94;6163894;28;96624;-62
2022/11/29 11:27:33;;;;;;;;;51.80;40.80;;;;;6.55;55.76;99401.66;6180707;28;96455;-62
2022/11/29 11:30:37;;;;;;;;;52.00;40.40;;;;;6.58;56.35;99403.16;6185401;28;96411;-62
2022/11/29 11:33:42;;;;;;;;;47.80;38.60;;;;;6.45;56.11;99401.13;6186008;28;98683;-62
2022/11/29 11:36:45;;;;;;;;;47.20;38.60;;;;;6.28;56.37;99396.91;6186356;28;97437;-63
2022/11/29 11:39:51;;;;;;;;;47.50;38.25;;;;;6.23;56.93;99396.63;6167582;28;96280;-63
2022/11/29 11:42:57;;;;;;;;;39.80;32.00;;;;;6.27;56.86;99406.78;6170543;28;96694;-62
2022/11/29 11:46:01;;;;;;;;;47.00;37.50;;;;;6.31;56.86;99404.56;6176519;28;96379;-62
2022/11/29 11:49:12;;;;;;;;;36.00;31.20;;;;;6.30;56.90;99413.66;6170997;28;96445;-63
2022/11/29 11:52:21;;;;;;;;;47.00;39.00;;;;;6.37;56.88;99403.84;6182707;28;96272;-62
2022/11/29 11:55:33;;;;;;;;;44.80;34.80;;;;;6.50;56.88;99404.06;6169474;28;96280;-62
2022/11/29 11:58:45;;;;;;;;;52.00;41.00;;;;;6.53;56.20;99409.91;6160570;28;96697;-62
2022/11/29 12:01:48;;;;;;;;;41.40;36.20;;;;;6.38;56.17;99410.88;6179936;28;97916;-63
2022/11/29 12:04:54;;;;;;;;;43.60;36.00;;;;;6.25;56.78;99408.00;6171664;28;97396;-63
2022/11/29 12:08:01;;;;;;;;;45.40;37.80;;;;;6.27;56.89;99411.31;6172639;28;96815;-62
2022/11/29 12:11:15;;;;;;;;;46.20;37.80;;;;;6.16;56.85;99406.41;6185247;28;96466;-62
2022/11/29 12:14:28;;;;;;;;;38.40;33.40;;;;;6.00;56.80;99407.38;6186767;28;97078;-63
2022/11/29 12:17:36;;;;;;;;;44.80;35.40;;;;;6.00;56.77;99410.06;6183470;28;97345;-62
2022/11/29 12:20:45;;;;;;;;;39.20;34.40;;;;;6.11;57.08;99414.16;6189237;28;97075;-62
2022/11/29 12:23:53;;;;;;;;;44.60;35.00;;;;;5.97;57.07;99418.41;6180612;28;96516;-62
2022/11/29 12:27:03;;;;;;;;;33.50;28.50;;;;;5.52;58.57;99412.00;6184415;28;96589;-63
2022/11/29 12:30:13;;;;;;;;;45.75;35.00;;;;;5.66;58.62;99411.28;6186303;28;96537;-62
2022/11/29 12:33:30;;;;;;;;;46.40;38.60;;;;;5.85;58.61;99412.66;6178272;28;96403;-62
2022/11/29 12:36:43;;;;;;;;;47.40;39.40;;;;;6.04;58.80;99414.88;6176760;28;97884;-62
2022/11/29 12:39:57;;;;;;;;;44.20;35.60;;;;;6.15;58.00;99415.44;6170016;28;96758;-62
2022/11/29 12:43:15;;;;;;;;;45.25;35.50;;;;;6.12;57.90;99424.66;6188909;28;96906;-63
2022/11/29 12:46:24;;;;;;;;;42.50;35.75;;;;;5.91;57.50;99413.81;6185855;28;96879;-63
2022/11/29 12:49:39;;;;;;;;;42.75;36.00;;;;;5.78;57.67;99419.72;6187707;28;97910;-63
2022/11/29 12:52:52;;;;;;;;;43.20;35.60;;;;;5.82;57.98;99414.81;6184518;28;96460;-62
2022/11/29 12:56:07;;;;;;;;;45.00;36.00;;;;;5.74;58.55;99417.56;6184031;28;96334;-62
2022/11/29 12:59:22;;;;;;;;;43.80;35.60;;;;;5.79;58.02;99429.41;6189206;28;96235;-62
2022/11/29 13:02:42;;;;;;;;;45.00;37.00;;;;;5.67;58.31;99396.03;6189370;28;96307;-62
2022/11/29 13:05:58;;;;;;;;;42.60;35.00;;;;;5.86;58.13;99430.38;6188554;28;96546;-63
2022/11/29 13:09:22;;;;;;;;;37.40;33.00;;;;;5.87;57.87;99424.03;6185577;28;96322;-62
2022/11/29 13:12:36;;;;;;;;;33.75;29.50;;;;;5.71;57.73;99425.97;6187026;28;96434;-63
2022/11/29 13:15:48;;;;;;;;;42.00;33.00;;;;;5.46;58.28;99430.63;6174433;28;96557;-62
2022/11/29 13:18:59;;;;;;;;;35.80;31.00;;;;;5.26;59.71;99437.41;6182399;28;96478;-63
2022/11/29 13:22:14;;;;;;;;;40.40;33.40;;;;;5.13;60.24;99430.75;6188743;28;96953;-62
2022/11/29 13:25:24;;;;;;;;;41.80;33.20;;;;;5.33;60.07;99441.03;6184848;28;96546;-62
2022/11/29 13:28:31;;;;;;;;;42.40;36.00;;;;;5.38;60.22;99446.69;6183337;28;96429;-62
2022/11/29 13:31:38;;;;;;;;;40.00;34.40;;;;;5.15;60.72;99441.28;6188178;28;97153;-63
2022/11/29 13:34:49;;;;;;;;;41.75;33.75;;;;;5.30;60.62;99444.06;6184434;28;96412;-63
2022/11/29 13:37:57;;;;;;;;;41.00;34.80;;;;;5.14;61.39;99444.97;6180392;28;97242;-63
2022/11/29 13:41:10;;;;;;;;;46.20;36.20;;;;;5.42;60.67;99442.69;6169664;28;96843;-62
2022/11/29 13:44:23;;;;;;;;;39.60;34.60;;;;;5.44;60.52;99457.53;6179708;28;96335;-63
2022/11/29 13:47:27;;;;;;;;;45.20;35.60;;;;;5.46;60.29;99458.19;6187949;28;96439;-62
2022/11/29 13:50:43;;;;;;;;;40.00;34.00;;;;;5.36;60.68;99467.44;6182715;28;96491;-63
2022/11/29 13:53:46;;;;;;;;;42.20;35.00;;;;;5.24;61.17;99456.28;6187902;28;97565;-63
2022/11/29 13:57:02;;;;;;;;;42.20;35.00;;;;;5.23;61.42;99460.78;6187483;28;96688;-63
2022/11/29 14:00:07;;;;;;;;;44.80;37.20;;;;;5.10;61.79;99452.50;6176155;28;96897;-62
2022/11/29 14:03:31;;;;;;;;;41.60;34.60;;;;;5.20;61.52;99458.47;6187667;28;96663;-63
2022/11/29 14:06:38;;;;;;;;;42.40;34.60;;;;;5.05;61.87;99441.50;6178863;28;96437;-62
2022/11/29 14:10:00;;;;;;;;;47.00;36.00;;;;;5.02;62.24;99455.22;6171208;28;96799;-62
2022/11/29 14:13:05;;;;;;;;;41.20;35.00;;;;;5.01;61.86;99464.25;6178960;28;96316;-63
2022/11/29 14:16:18;;;;;;;;;31.80;28.80;;;;;4.92;62.60;99470.63;6188226;28;96362;-63
2022/11/29 14:19:25;;;;;;;;;44.00;35.00;;;;;4.94;62.66;99475.75;6185180;28;97700;-62
2022/11/29 14:23:14;;;;;;;;;39.40;32.00;;;;;4.96;63.04;99473.75;6186723;28;96564;-62
2022/11/29 14:26:27;;;;;;;;;37.00;32.50;;;;;4.97;63.03;99478.94;6186280;28;96499;-62
2022/11/29 14:29:53;;;;;;;;;39.25;33.00;;;;;5.07;63.01;99471.56;6185025;28;96277;-62
2022/11/29 14:33:04;;;;;;;;;39.00;32.00;;;;;5.13;63.00;99480.75;6183542;28;96673;-63
2022/11/29 14:36:25;;;;;;;;;37.40;32.00;;;;;5.22;62.66;99487.72;6175462;28;96941;-63
2022/11/29 14:39:45;;;;;;;;;41.00;33.00;;;;;5.19;62.71;99491.56;6168464;28;97189;-63
2022/11/29 14:42:51;;;;;;;;;32.60;29.20;;;;;5.12;63.34;99487.09;6184412;28;96923;-63
2022/11/29 14:46:08;;;;;;;;;33.20;30.00;;;;;5.16;62.87;99486.56;6183871;28;97549;-62
2022/11/29 14:49:22;;;;;;;;;37.00;31.00;;;;;5.15;62.87;99479.56;6178249;28;97508;-63
2022/11/29 14:52:31;;;;;;;;;27.00;25.00;;;;;5.13;63.36;99478.88;6186738;28;96468;-63
2022/11/29 14:55:37;;;;;;;;;38.00;32.00;;;;;5.12;63.13;99482.56;6183602;28;97211;-63
2022/11/29 14:58:41;;;;;;;;;34.50;32.00;;;;;5.27;62.91;99487.19;6184825;28;96331;-63
2022/11/29 15:01:46;;;;;;;;;37.40;32.00;;;;;5.36;62.87;99488.84;6184666;28;98296;-63
2022/11/29 15:04:52;;;;;;;;;45.80;36.40;;;;;5.41;62.81;99497.16;6181083;28;96629;-63